sensor_id;sensor_type;location;lat;lon;timestamp;P1;durP1;ratioP1;P2;durP2;ratioP2
22644;SDS011;11489;50.834;6.752;2023-06-14T00:01:03;6.32;;;5.40;;
22644;SDS011;11489;50.834;6.752;2023-06-14T00:03:31;6.65;;;5.60;;
22644;SDS011;11489;50.834;6.752;2023-06-14T00:05:57;7.75;;;5.95;;
22644;SDS011;11489;50.834;6.752;2023-06-14T00:08:22;6.93;;;5.78;;
22644;SDS011;11489;50.834;6.752;2023-06-14T00:10:49;8.07;;;5.80;;
22644;SDS011;11489;50.834;6.752;2023-06-14T00:13:15;6.63;;;5.90;;
22644;SDS011;11489;50.834;6.752;2023-06-14T00:15:41;7.13;;;5.63;;
22644;SDS011;11489;50.834;6.752;2023-06-14T00:18:08;5.90;;;5.38;;
22644;SDS011;11489;50.834;6.752;2023-06-14T00:20:36;6.38;;;5.20;;
22644;SDS011;11489;50.834;6.752;2023-06-14T00:23:02;7.45;;;6.20;;
22644;SDS011;11489;50.834;6.752;2023-06-14T00:25:28;10.30;;;5.82;;
22644;SDS011;11489;50.834;6.752;2023-06-14T00:27:54;7.95;;;5.32;;
22644;SDS011;11489;50.834;6.752;2023-06-14T00:30:21;6.88;;;5.53;;
22644;SDS011;11489;50.834;6.752;2023-06-14T00:32:47;6.03;;;5.40;;
22644;SDS011;11489;50.834;6.752;2023-06-14T00:35:13;6.57;;;5.90;;
22644;SDS011;11489;50.834;6.752;2023-06-14T00:37:39;6.70;;;5.57;;
22644;SDS011;11489;50.834;6.752;2023-06-14T00:40:05;6.93;;;6.00;;
22644;SDS011;11489;50.834;6.752;2023-06-14T00:42:32;7.28;;;5.88;;
22644;SDS011;11489;50.834;6.752;2023-06-14T00:44:58;7.82;;;5.75;;
22644;SDS011;11489;50.834;6.752;2023-06-14T00:47:24;6.82;;;5.45;;
22644;SDS011;11489;50.834;6.752;2023-06-14T00:49:50;8.60;;;5.80;;
22644;SDS011;11489;50.834;6.752;2023-06-14T00:52:16;7.53;;;5.72;;
22644;SDS011;11489;50.834;6.752;2023-06-14T00:54:43;8.23;;;5.60;;
22644;SDS011;11489;50.834;6.752;2023-06-14T00:57:09;8.38;;;6.38;;
22644;SDS011;11489;50.834;6.752;2023-06-14T00:59:42;5.90;;;5.22;;
22644;SDS011;11489;50.834;6.752;2023-06-14T01:02:10;7.18;;;5.43;;
22644;SDS011;11489;50.834;6.752;2023-06-14T01:04:37;8.57;;;5.90;;
22644;SDS011;11489;50.834;6.752;2023-06-14T01:07:08;7.82;;;5.75;;
22644;SDS011;11489;50.834;6.752;2023-06-14T01:09:58;6.57;;;5.65;;
22644;SDS011;11489;50.834;6.752;2023-06-14T01:12:39;6.25;;;5.63;;
22644;SDS011;11489;50.834;6.752;2023-06-14T01:15:13;7.40;;;6.25;;
22644;SDS011;11489;50.834;6.752;2023-06-14T01:17:40;8.75;;;6.43;;
22644;SDS011;11489;50.834;6.752;2023-06-14T01:20:10;8.45;;;6.47;;
22644;SDS011;11489;50.834;6.752;2023-06-14T01:22:55;7.05;;;6.13;;
22644;SDS011;11489;50.834;6.752;2023-06-14T01:25:21;7.80;;;5.82;;
22644;SDS011;11489;50.834;6.752;2023-06-14T01:27:55;8.07;;;6.45;;
22644;SDS011;11489;50.834;6.752;2023-06-14T01:30:27;8.32;;;5.95;;
22644;SDS011;11489;50.834;6.752;2023-06-14T01:32:55;7.40;;;6.28;;
22644;SDS011;11489;50.834;6.752;2023-06-14T01:35:23;10.98;;;6.85;;
22644;SDS011;11489;50.834;6.752;2023-06-14T01:37:48;9.32;;;7.35;;
22644;SDS011;11489;50.834;6.752;2023-06-14T01:40:15;8.75;;;6.88;;
22644;SDS011;11489;50.834;6.752;2023-06-14T01:42:42;7.72;;;6.55;;
22644;SDS011;11489;50.834;6.752;2023-06-14T01:45:09;8.32;;;7.03;;
22644;SDS011;11489;50.834;6.752;2023-06-14T01:47:36;8.25;;;6.47;;
22644;SDS011;11489;50.834;6.752;2023-06-14T01:50:02;9.40;;;6.75;;
22644;SDS011;11489;50.834;6.752;2023-06-14T01:52:29;10.25;;;6.72;;
22644;SDS011;11489;50.834;6.752;2023-06-14T01:54:54;9.65;;;7.07;;
22644;SDS011;11489;50.834;6.752;2023-06-14T01:57:20;8.68;;;7.10;;
22644;SDS011;11489;50.834;6.752;2023-06-14T01:59:47;7.57;;;6.75;;
22644;SDS011;11489;50.834;6.752;2023-06-14T02:02:14;7.40;;;6.68;;
22644;SDS011;11489;50.834;6.752;2023-06-14T02:04:40;8.10;;;6.63;;
22644;SDS011;11489;50.834;6.752;2023-06-14T02:07:06;8.10;;;6.75;;
22644;SDS011;11489;50.834;6.752;2023-06-14T02:09:33;8.98;;;6.88;;
22644;SDS011;11489;50.834;6.752;2023-06-14T02:12:00;7.55;;;6.68;;
22644;SDS011;11489;50.834;6.752;2023-06-14T02:14:26;10.50;;;6.57;;
22644;SDS011;11489;50.834;6.752;2023-06-14T02:16:52;13.18;;;6.60;;
22644;SDS011;11489;50.834;6.752;2023-06-14T02:19:19;8.07;;;6.72;;
22644;SDS011;11489;50.834;6.752;2023-06-14T02:21:45;8.48;;;6.50;;
22644;SDS011;11489;50.834;6.752;2023-06-14T02:24:12;8.85;;;6.47;;
22644;SDS011;11489;50.834;6.752;2023-06-14T02:26:38;7.05;;;6.30;;
22644;SDS011;11489;50.834;6.752;2023-06-14T02:29:04;9.57;;;6.28;;
22644;SDS011;11489;50.834;6.752;2023-06-14T02:31:31;8.43;;;6.32;;
22644;SDS011;11489;50.834;6.752;2023-06-14T02:33:57;7.20;;;6.45;;
22644;SDS011;11489;50.834;6.752;2023-06-14T02:36:23;10.77;;;6.60;;
22644;SDS011;11489;50.834;6.752;2023-06-14T02:38:49;8.70;;;6.35;;
22644;SDS011;11489;50.834;6.752;2023-06-14T02:41:14;7.93;;;6.43;;
22644;SDS011;11489;50.834;6.752;2023-06-14T02:43:40;8.75;;;6.97;;
22644;SDS011;11489;50.834;6.752;2023-06-14T02:46:06;9.50;;;6.25;;
22644;SDS011;11489;50.834;6.752;2023-06-14T02:48:32;10.82;;;6.70;;
22644;SDS011;11489;50.834;6.752;2023-06-14T02:50:58;7.95;;;6.43;;
22644;SDS011;11489;50.834;6.752;2023-06-14T02:53:23;8.10;;;6.55;;
22644;SDS011;11489;50.834;6.752;2023-06-14T02:55:49;10.23;;;6.82;;
22644;SDS011;11489;50.834;6.752;2023-06-14T02:58:15;9.07;;;6.85;;
22644;SDS011;11489;50.834;6.752;2023-06-14T03:00:41;7.10;;;6.32;;
22644;SDS011;11489;50.834;6.752;2023-06-14T03:03:07;6.93;;;5.88;;
22644;SDS011;11489;50.834;6.752;2023-06-14T03:05:40;10.68;;;7.10;;
22644;SDS011;11489;50.834;6.752;2023-06-14T03:08:11;8.65;;;6.78;;
22644;SDS011;11489;50.834;6.752;2023-06-14T03:10:48;9.00;;;6.40;;
22644;SDS011;11489;50.834;6.752;2023-06-14T03:13:14;8.90;;;6.50;;
22644;SDS011;11489;50.834;6.752;2023-06-14T03:15:41;12.80;;;6.72;;
22644;SDS011;11489;50.834;6.752;2023-06-14T03:18:08;8.60;;;6.80;;
22644;SDS011;11489;50.834;6.752;2023-06-14T03:20:38;9.38;;;7.43;;
22644;SDS011;11489;50.834;6.752;2023-06-14T03:23:04;9.98;;;7.20;;
22644;SDS011;11489;50.834;6.752;2023-06-14T03:25:30;7.63;;;6.78;;
22644;SDS011;11489;50.834;6.752;2023-06-14T03:27:58;8.52;;;6.68;;
22644;SDS011;11489;50.834;6.752;2023-06-14T03:30:24;9.00;;;7.68;;
22644;SDS011;11489;50.834;6.752;2023-06-14T03:32:49;11.25;;;6.95;;
22644;SDS011;11489;50.834;6.752;2023-06-14T03:35:18;9.15;;;7.07;;
22644;SDS011;11489;50.834;6.752;2023-06-14T03:37:44;10.82;;;7.50;;
22644;SDS011;11489;50.834;6.752;2023-06-14T03:40:11;9.90;;;6.80;;
22644;SDS011;11489;50.834;6.752;2023-06-14T03:42:47;8.20;;;6.85;;
22644;SDS011;11489;50.834;6.752;2023-06-14T03:45:13;7.88;;;6.13;;
22644;SDS011;11489;50.834;6.752;2023-06-14T03:47:38;9.05;;;6.78;;
22644;SDS011;11489;50.834;6.752;2023-06-14T03:50:05;8.55;;;6.90;;
22644;SDS011;11489;50.834;6.752;2023-06-14T03:52:31;8.95;;;6.85;;
22644;SDS011;11489;50.834;6.752;2023-06-14T03:54:57;8.55;;;6.80;;
22644;SDS011;11489;50.834;6.752;2023-06-14T03:57:25;7.68;;;6.35;;
22644;SDS011;11489;50.834;6.752;2023-06-14T03:59:51;8.32;;;7.07;;
22644;SDS011;11489;50.834;6.752;2023-06-14T04:02:20;7.38;;;6.65;;
22644;SDS011;11489;50.834;6.752;2023-06-14T04:04:46;12.68;;;7.13;;
22644;SDS011;11489;50.834;6.752;2023-06-14T04:07:13;7.85;;;7.05;;
22644;SDS011;11489;50.834;6.752;2023-06-14T04:09:40;10.48;;;6.85;;
22644;SDS011;11489;50.834;6.752;2023-06-14T04:12:06;10.77;;;6.25;;
22644;SDS011;11489;50.834;6.752;2023-06-14T04:14:36;8.00;;;6.10;;
22644;SDS011;11489;50.834;6.752;2023-06-14T04:17:02;6.88;;;6.00;;
22644;SDS011;11489;50.834;6.752;2023-06-14T04:19:28;8.32;;;6.38;;
22644;SDS011;11489;50.834;6.752;2023-06-14T04:21:54;9.13;;;6.10;;
22644;SDS011;11489;50.834;6.752;2023-06-14T04:24:20;6.57;;;5.63;;
22644;SDS011;11489;50.834;6.752;2023-06-14T04:26:46;9.77;;;6.28;;
22644;SDS011;11489;50.834;6.752;2023-06-14T04:29:16;7.63;;;5.68;;
22644;SDS011;11489;50.834;6.752;2023-06-14T04:31:44;6.32;;;5.72;;
22644;SDS011;11489;50.834;6.752;2023-06-14T04:34:11;6.30;;;5.30;;
22644;SDS011;11489;50.834;6.752;2023-06-14T04:36:41;6.20;;;5.50;;
22644;SDS011;11489;50.834;6.752;2023-06-14T04:39:14;6.15;;;5.00;;
22644;SDS011;11489;50.834;6.752;2023-06-14T04:41:44;8.20;;;5.65;;
22644;SDS011;11489;50.834;6.752;2023-06-14T04:44:10;6.30;;;5.60;;
22644;SDS011;11489;50.834;6.752;2023-06-14T04:46:38;6.35;;;5.70;;
22644;SDS011;11489;50.834;6.752;2023-06-14T04:49:17;7.15;;;5.60;;
22644;SDS011;11489;50.834;6.752;2023-06-14T04:51:43;9.15;;;5.75;;
22644;SDS011;11489;50.834;6.752;2023-06-14T04:54:11;11.35;;;6.13;;
22644;SDS011;11489;50.834;6.752;2023-06-14T04:56:40;7.28;;;6.22;;
22644;SDS011;11489;50.834;6.752;2023-06-14T04:59:07;9.13;;;6.43;;
22644;SDS011;11489;50.834;6.752;2023-06-14T05:01:34;8.43;;;6.13;;
22644;SDS011;11489;50.834;6.752;2023-06-14T05:04:00;8.57;;;6.65;;
22644;SDS011;11489;50.834;6.752;2023-06-14T05:06:26;6.45;;;5.78;;
22644;SDS011;11489;50.834;6.752;2023-06-14T05:08:55;10.48;;;6.75;;
22644;SDS011;11489;50.834;6.752;2023-06-14T05:11:21;7.53;;;6.47;;
22644;SDS011;11489;50.834;6.752;2023-06-14T05:13:49;8.52;;;6.30;;
22644;SDS011;11489;50.834;6.752;2023-06-14T05:16:15;6.82;;;6.13;;
22644;SDS011;11489;50.834;6.752;2023-06-14T05:18:42;7.00;;;6.22;;
22644;SDS011;11489;50.834;6.752;2023-06-14T05:21:08;9.23;;;6.88;;
22644;SDS011;11489;50.834;6.752;2023-06-14T05:23:33;8.02;;;6.57;;
22644;SDS011;11489;50.834;6.752;2023-06-14T05:25:59;8.18;;;6.45;;
22644;SDS011;11489;50.834;6.752;2023-06-14T05:28:27;8.18;;;6.75;;
22644;SDS011;11489;50.834;6.752;2023-06-14T05:30:53;10.82;;;6.95;;
22644;SDS011;11489;50.834;6.752;2023-06-14T05:33:19;11.18;;;7.07;;
22644;SDS011;11489;50.834;6.752;2023-06-14T05:35:44;11.45;;;6.40;;
22644;SDS011;11489;50.834;6.752;2023-06-14T05:38:10;10.02;;;6.47;;
22644;SDS011;11489;50.834;6.752;2023-06-14T05:40:36;9.85;;;5.63;;
22644;SDS011;11489;50.834;6.752;2023-06-14T05:43:01;5.32;;;4.82;;
22644;SDS011;11489;50.834;6.752;2023-06-14T05:45:27;10.57;;;4.72;;
22644;SDS011;11489;50.834;6.752;2023-06-14T05:47:53;6.78;;;5.28;;
22644;SDS011;11489;50.834;6.752;2023-06-14T05:50:21;6.80;;;4.32;;
22644;SDS011;11489;50.834;6.752;2023-06-14T05:52:47;5.43;;;4.50;;
22644;SDS011;11489;50.834;6.752;2023-06-14T05:55:13;7.95;;;4.32;;
22644;SDS011;11489;50.834;6.752;2023-06-14T05:57:38;6.85;;;3.97;;
22644;SDS011;11489;50.834;6.752;2023-06-14T06:00:05;7.50;;;4.00;;
22644;SDS011;11489;50.834;6.752;2023-06-14T06:02:48;7.60;;;4.20;;
22644;SDS011;11489;50.834;6.752;2023-06-14T06:05:14;6.65;;;3.75;;
22644;SDS011;11489;50.834;6.752;2023-06-14T06:07:40;6.13;;;3.90;;
22644;SDS011;11489;50.834;6.752;2023-06-14T06:10:07;7.47;;;4.30;;
22644;SDS011;11489;50.834;6.752;2023-06-14T06:12:33;6.30;;;4.32;;
22644;SDS011;11489;50.834;6.752;2023-06-14T06:14:59;6.88;;;3.67;;
22644;SDS011;11489;50.834;6.752;2023-06-14T06:17:25;7.25;;;3.80;;
22644;SDS011;11489;50.834;6.752;2023-06-14T06:19:51;10.98;;;3.78;;
22644;SDS011;11489;50.834;6.752;2023-06-14T06:22:17;5.07;;;3.50;;
22644;SDS011;11489;50.834;6.752;2023-06-14T06:24:43;7.28;;;3.53;;
22644;SDS011;11489;50.834;6.752;2023-06-14T06:27:08;5.70;;;3.70;;
22644;SDS011;11489;50.834;6.752;2023-06-14T06:29:34;7.38;;;3.63;;
22644;SDS011;11489;50.834;6.752;2023-06-14T06:32:00;4.82;;;3.72;;
22644;SDS011;11489;50.834;6.752;2023-06-14T06:34:26;5.40;;;3.28;;
22644;SDS011;11489;50.834;6.752;2023-06-14T06:36:52;4.72;;;3.63;;
22644;SDS011;11489;50.834;6.752;2023-06-14T06:39:18;5.38;;;3.95;;
22644;SDS011;11489;50.834;6.752;2023-06-14T06:41:44;6.60;;;3.80;;
22644;SDS011;11489;50.834;6.752;2023-06-14T06:44:09;8.65;;;3.40;;
22644;SDS011;11489;50.834;6.752;2023-06-14T06:46:35;8.38;;;3.90;;
22644;SDS011;11489;50.834;6.752;2023-06-14T06:49:05;6.35;;;3.50;;
22644;SDS011;11489;50.834;6.752;2023-06-14T06:51:31;6.25;;;3.40;;
22644;SDS011;11489;50.834;6.752;2023-06-14T06:53:57;4.53;;;3.55;;
22644;SDS011;11489;50.834;6.752;2023-06-14T06:56:23;5.10;;;3.42;;
22644;SDS011;11489;50.834;6.752;2023-06-14T06:58:49;4.25;;;3.20;;
22644;SDS011;11489;50.834;6.752;2023-06-14T07:01:16;6.07;;;3.20;;
22644;SDS011;11489;50.834;6.752;2023-06-14T07:03:42;6.20;;;3.60;;
22644;SDS011;11489;50.834;6.752;2023-06-14T07:06:08;6.43;;;3.15;;
22644;SDS011;11489;50.834;6.752;2023-06-14T07:08:35;4.35;;;3.38;;
22644;SDS011;11489;50.834;6.752;2023-06-14T07:11:03;7.55;;;3.08;;
22644;SDS011;11489;50.834;6.752;2023-06-14T07:13:30;5.10;;;3.05;;
22644;SDS011;11489;50.834;6.752;2023-06-14T07:15:59;4.45;;;3.22;;
22644;SDS011;11489;50.834;6.752;2023-06-14T07:18:25;4.13;;;2.80;;
22644;SDS011;11489;50.834;6.752;2023-06-14T07:20:52;4.00;;;3.08;;
22644;SDS011;11489;50.834;6.752;2023-06-14T07:23:19;5.95;;;3.08;;
22644;SDS011;11489;50.834;6.752;2023-06-14T07:25:45;7.25;;;3.35;;
22644;SDS011;11489;50.834;6.752;2023-06-14T07:28:12;5.35;;;3.08;;
22644;SDS011;11489;50.834;6.752;2023-06-14T07:30:37;4.80;;;3.40;;
22644;SDS011;11489;50.834;6.752;2023-06-14T07:33:03;4.18;;;3.17;;
22644;SDS011;11489;50.834;6.752;2023-06-14T07:35:29;6.40;;;3.03;;
22644;SDS011;11489;50.834;6.752;2023-06-14T07:37:54;7.57;;;3.20;;
22644;SDS011;11489;50.834;6.752;2023-06-14T07:40:20;6.53;;;3.35;;
22644;SDS011;11489;50.834;6.752;2023-06-14T07:42:46;3.90;;;3.08;;
22644;SDS011;11489;50.834;6.752;2023-06-14T07:45:13;4.63;;;2.92;;
22644;SDS011;11489;50.834;6.752;2023-06-14T07:47:39;3.47;;;2.72;;
22644;SDS011;11489;50.834;6.752;2023-06-14T07:50:05;5.72;;;2.90;;
22644;SDS011;11489;50.834;6.752;2023-06-14T07:52:31;3.13;;;2.83;;
22644;SDS011;11489;50.834;6.752;2023-06-14T07:54:56;5.80;;;2.60;;
22644;SDS011;11489;50.834;6.752;2023-06-14T07:57:23;5.57;;;2.90;;
22644;SDS011;11489;50.834;6.752;2023-06-14T07:59:48;5.90;;;2.90;;
22644;SDS011;11489;50.834;6.752;2023-06-14T08:02:15;5.15;;;3.05;;
22644;SDS011;11489;50.834;6.752;2023-06-14T08:04:41;5.05;;;2.90;;
22644;SDS011;11489;50.834;6.752;2023-06-14T08:07:07;3.63;;;2.58;;
22644;SDS011;11489;50.834;6.752;2023-06-14T08:09:33;6.05;;;2.42;;
22644;SDS011;11489;50.834;6.752;2023-06-14T08:11:59;3.03;;;2.60;;
22644;SDS011;11489;50.834;6.752;2023-06-14T08:14:25;4.47;;;2.78;;
22644;SDS011;11489;50.834;6.752;2023-06-14T08:16:51;3.80;;;3.17;;
22644;SDS011;11489;50.834;6.752;2023-06-14T08:19:16;5.75;;;2.53;;
22644;SDS011;11489;50.834;6.752;2023-06-14T08:21:43;3.35;;;2.67;;
22644;SDS011;11489;50.834;6.752;2023-06-14T08:24:10;4.55;;;2.20;;
22644;SDS011;11489;50.834;6.752;2023-06-14T08:26:37;3.25;;;2.30;;
22644;SDS011;11489;50.834;6.752;2023-06-14T08:29:04;5.35;;;2.50;;
22644;SDS011;11489;50.834;6.752;2023-06-14T08:31:32;2.97;;;2.20;;
22644;SDS011;11489;50.834;6.752;2023-06-14T08:33:58;4.55;;;2.88;;
22644;SDS011;11489;50.834;6.752;2023-06-14T08:36:24;2.90;;;2.33;;
22644;SDS011;11489;50.834;6.752;2023-06-14T08:38:50;4.88;;;2.50;;
22644;SDS011;11489;50.834;6.752;2023-06-14T08:41:22;4.50;;;2.65;;
22644;SDS011;11489;50.834;6.752;2023-06-14T08:43:49;7.43;;;2.15;;
22644;SDS011;11489;50.834;6.752;2023-06-14T08:46:16;3.00;;;2.10;;
22644;SDS011;11489;50.834;6.752;2023-06-14T08:48:51;2.97;;;2.22;;
22644;SDS011;11489;50.834;6.752;2023-06-14T08:51:22;3.60;;;2.20;;
22644;SDS011;11489;50.834;6.752;2023-06-14T08:53:53;7.95;;;2.40;;
22644;SDS011;11489;50.834;6.752;2023-06-14T08:56:26;3.38;;;1.80;;
22644;SDS011;11489;50.834;6.752;2023-06-14T08:58:53;3.97;;;2.00;;
22644;SDS011;11489;50.834;6.752;2023-06-14T09:01:19;3.65;;;1.50;;
22644;SDS011;11489;50.834;6.752;2023-06-14T09:03:47;2.28;;;1.42;;
22644;SDS011;11489;50.834;6.752;2023-06-14T09:06:13;4.50;;;1.60;;
22644;SDS011;11489;50.834;6.752;2023-06-14T09:08:41;4.70;;;1.67;;
22644;SDS011;11489;50.834;6.752;2023-06-14T09:11:10;2.25;;;1.50;;
22644;SDS011;11489;50.834;6.752;2023-06-14T09:13:38;1.88;;;1.67;;
22644;SDS011;11489;50.834;6.752;2023-06-14T09:16:04;3.00;;;1.70;;
22644;SDS011;11489;50.834;6.752;2023-06-14T09:18:40;2.10;;;1.45;;
22644;SDS011;11489;50.834;6.752;2023-06-14T09:21:10;3.20;;;1.50;;
22644;SDS011;11489;50.834;6.752;2023-06-14T09:23:40;1.60;;;1.50;;
22644;SDS011;11489;50.834;6.752;2023-06-14T09:26:08;6.93;;;1.98;;
22644;SDS011;11489;50.834;6.752;2023-06-14T09:28:35;2.13;;;1.40;;
22644;SDS011;11489;50.834;6.752;2023-06-14T09:31:01;1.70;;;1.60;;
22644;SDS011;11489;50.834;6.752;2023-06-14T09:33:27;1.77;;;1.50;;
22644;SDS011;11489;50.834;6.752;2023-06-14T09:35:54;2.08;;;1.67;;
22644;SDS011;11489;50.834;6.752;2023-06-14T09:38:20;4.95;;;1.80;;
22644;SDS011;11489;50.834;6.752;2023-06-14T09:40:46;1.80;;;1.60;;
22644;SDS011;11489;50.834;6.752;2023-06-14T09:43:11;1.55;;;1.40;;
22644;SDS011;11489;50.834;6.752;2023-06-14T09:45:40;1.75;;;1.55;;
22644;SDS011;11489;50.834;6.752;2023-06-14T09:48:06;4.32;;;1.60;;
22644;SDS011;11489;50.834;6.752;2023-06-14T09:50:33;2.47;;;1.60;;
22644;SDS011;11489;50.834;6.752;2023-06-14T09:53:03;2.97;;;1.95;;
22644;SDS011;11489;50.834;6.752;2023-06-14T09:55:33;4.13;;;1.58;;
22644;SDS011;11489;50.834;6.752;2023-06-14T09:58:02;1.70;;;1.45;;
22644;SDS011;11489;50.834;6.752;2023-06-14T10:00:31;2.15;;;1.60;;
22644;SDS011;11489;50.834;6.752;2023-06-14T10:03:00;1.55;;;1.38;;
22644;SDS011;11489;50.834;6.752;2023-06-14T10:05:32;2.00;;;1.80;;
22644;SDS011;11489;50.834;6.752;2023-06-14T10:08:04;3.33;;;1.80;;
22644;SDS011;11489;50.834;6.752;2023-06-14T10:10:33;1.40;;;1.30;;
22644;SDS011;11489;50.834;6.752;2023-06-14T10:12:59;2.38;;;1.83;;
22644;SDS011;11489;50.834;6.752;2023-06-14T10:15:37;1.95;;;1.73;;
22644;SDS011;11489;50.834;6.752;2023-06-14T10:19:06;2.20;;;1.65;;
22644;SDS011;11489;50.834;6.752;2023-06-14T10:23:59;2.60;;;1.50;;
22644;SDS011;11489;50.834;6.752;2023-06-14T10:26:30;2.28;;;1.63;;
22644;SDS011;11489;50.834;6.752;2023-06-14T10:28:56;1.48;;;1.38;;
22644;SDS011;11489;50.834;6.752;2023-06-14T10:31:23;2.95;;;2.00;;
22644;SDS011;11489;50.834;6.752;2023-06-14T10:34:04;1.60;;;1.38;;
22644;SDS011;11489;50.834;6.752;2023-06-14T10:36:30;4.72;;;1.70;;
22644;SDS011;11489;50.834;6.752;2023-06-14T10:39:10;4.20;;;1.80;;
22644;SDS011;11489;50.834;6.752;2023-06-14T10:41:40;1.63;;;1.35;;
22644;SDS011;11489;50.834;6.752;2023-06-14T10:46:38;2.88;;;1.92;;
22644;SDS011;11489;50.834;6.752;2023-06-14T10:49:04;1.80;;;1.70;;
22644;SDS011;11489;50.834;6.752;2023-06-14T10:51:37;4.70;;;1.95;;
22644;SDS011;11489;50.834;6.752;2023-06-14T10:54:11;2.28;;;1.60;;
22644;SDS011;11489;50.834;6.752;2023-06-14T10:56:38;1.65;;;1.45;;
22644;SDS011;11489;50.834;6.752;2023-06-14T10:59:15;3.53;;;1.70;;
22644;SDS011;11489;50.834;6.752;2023-06-14T11:01:54;4.50;;;1.80;;
22644;SDS011;11489;50.834;6.752;2023-06-14T11:04:53;3.15;;;1.85;;
22644;SDS011;11489;50.834;6.752;2023-06-14T11:12:40;2.03;;;1.83;;
22644;SDS011;11489;50.834;6.752;2023-06-14T11:15:10;2.00;;;1.80;;
22644;SDS011;11489;50.834;6.752;2023-06-14T11:17:36;3.05;;;1.90;;
22644;SDS011;11489;50.834;6.752;2023-06-14T11:20:11;2.85;;;2.20;;
22644;SDS011;11489;50.834;6.752;2023-06-14T11:22:44;2.10;;;1.70;;
22644;SDS011;11489;50.834;6.752;2023-06-14T11:25:13;3.97;;;2.28;;
22644;SDS011;11489;50.834;6.752;2023-06-14T11:27:43;2.05;;;1.80;;
22644;SDS011;11489;50.834;6.752;2023-06-14T11:30:09;1.60;;;1.50;;
22644;SDS011;11489;50.834;6.752;2023-06-14T11:32:36;3.95;;;1.80;;
22644;SDS011;11489;50.834;6.752;2023-06-14T11:35:02;1.90;;;1.70;;
22644;SDS011;11489;50.834;6.752;2023-06-14T11:37:30;2.00;;;1.70;;
22644;SDS011;11489;50.834;6.752;2023-06-14T11:39:58;2.55;;;1.70;;
22644;SDS011;11489;50.834;6.752;2023-06-14T11:42:26;4.68;;;1.80;;
22644;SDS011;11489;50.834;6.752;2023-06-14T11:44:53;3.50;;;1.75;;
22644;SDS011;11489;50.834;6.752;2023-06-14T11:47:20;2.20;;;1.58;;
22644;SDS011;11489;50.834;6.752;2023-06-14T11:49:46;1.70;;;1.52;;
22644;SDS011;11489;50.834;6.752;2023-06-14T11:52:12;2.10;;;1.50;;
22644;SDS011;11489;50.834;6.752;2023-06-14T11:54:38;5.10;;;1.63;;
22644;SDS011;11489;50.834;6.752;2023-06-14T11:57:05;2.55;;;1.50;;
22644;SDS011;11489;50.834;6.752;2023-06-14T11:59:32;2.53;;;1.52;;
22644;SDS011;11489;50.834;6.752;2023-06-14T12:02:04;4.03;;;1.63;;
22644;SDS011;11489;50.834;6.752;2023-06-14T12:04:30;1.60;;;1.50;;
22644;SDS011;11489;50.834;6.752;2023-06-14T12:06:56;2.75;;;1.80;;
22644;SDS011;11489;50.834;6.752;2023-06-14T12:09:22;4.97;;;1.95;;
22644;SDS011;11489;50.834;6.752;2023-06-14T12:11:51;2.33;;;1.60;;
22644;SDS011;11489;50.834;6.752;2023-06-14T12:14:29;4.20;;;1.88;;
22644;SDS011;11489;50.834;6.752;2023-06-14T12:17:04;3.10;;;1.85;;
22644;SDS011;11489;50.834;6.752;2023-06-14T12:19:31;1.42;;;1.33;;
22644;SDS011;11489;50.834;6.752;2023-06-14T12:22:00;2.10;;;1.55;;
22644;SDS011;11489;50.834;6.752;2023-06-14T12:24:29;3.22;;;2.08;;
22644;SDS011;11489;50.834;6.752;2023-06-14T12:26:57;3.33;;;1.90;;
22644;SDS011;11489;50.834;6.752;2023-06-14T12:29:24;2.35;;;1.70;;
22644;SDS011;11489;50.834;6.752;2023-06-14T12:31:51;2.75;;;1.60;;
22644;SDS011;11489;50.834;6.752;2023-06-14T12:34:19;3.50;;;1.70;;
22644;SDS011;11489;50.834;6.752;2023-06-14T12:36:45;3.10;;;1.58;;
22644;SDS011;11489;50.834;6.752;2023-06-14T12:39:11;5.95;;;1.75;;
22644;SDS011;11489;50.834;6.752;2023-06-14T12:41:38;3.65;;;1.83;;
22644;SDS011;11489;50.834;6.752;2023-06-14T12:44:04;3.20;;;1.42;;
22644;SDS011;11489;50.834;6.752;2023-06-14T12:46:30;2.03;;;1.63;;
22644;SDS011;11489;50.834;6.752;2023-06-14T12:48:56;3.83;;;1.90;;
22644;SDS011;11489;50.834;6.752;2023-06-14T12:51:22;2.72;;;1.70;;
22644;SDS011;11489;50.834;6.752;2023-06-14T12:53:48;1.88;;;1.50;;
22644;SDS011;11489;50.834;6.752;2023-06-14T12:56:14;1.77;;;1.65;;
22644;SDS011;11489;50.834;6.752;2023-06-14T12:58:41;2.85;;;1.88;;
22644;SDS011;11489;50.834;6.752;2023-06-14T13:01:07;2.00;;;1.70;;
22644;SDS011;11489;50.834;6.752;2023-06-14T13:03:33;1.90;;;1.70;;
22644;SDS011;11489;50.834;6.752;2023-06-14T13:05:59;3.28;;;1.67;;
22644;SDS011;11489;50.834;6.752;2023-06-14T13:08:26;2.05;;;1.48;;
22644;SDS011;11489;50.834;6.752;2023-06-14T13:10:53;1.40;;;1.27;;
22644;SDS011;11489;50.834;6.752;2023-06-14T13:13:19;2.65;;;1.65;;
22644;SDS011;11489;50.834;6.752;2023-06-14T13:15:45;3.88;;;1.38;;
22644;SDS011;11489;50.834;6.752;2023-06-14T13:18:11;1.70;;;1.60;;
22644;SDS011;11489;50.834;6.752;2023-06-14T13:20:40;1.30;;;1.20;;
22644;SDS011;11489;50.834;6.752;2023-06-14T13:23:06;2.50;;;1.23;;
22644;SDS011;11489;50.834;6.752;2023-06-14T13:25:36;1.80;;;1.55;;
22644;SDS011;11489;50.834;6.752;2023-06-14T13:28:03;2.92;;;1.40;;
22644;SDS011;11489;50.834;6.752;2023-06-14T13:30:29;1.35;;;1.20;;
22644;SDS011;11489;50.834;6.752;2023-06-14T13:32:56;1.80;;;1.50;;
22644;SDS011;11489;50.834;6.752;2023-06-14T13:35:22;1.30;;;1.20;;
22644;SDS011;11489;50.834;6.752;2023-06-14T13:37:48;2.25;;;1.30;;
22644;SDS011;11489;50.834;6.752;2023-06-14T13:40:14;1.60;;;1.20;;
22644;SDS011;11489;50.834;6.752;2023-06-14T13:42:40;1.30;;;1.20;;
22644;SDS011;11489;50.834;6.752;2023-06-14T13:45:06;4.28;;;1.40;;
22644;SDS011;11489;50.834;6.752;2023-06-14T13:47:33;1.50;;;1.15;;
22644;SDS011;11489;50.834;6.752;2023-06-14T13:49:59;1.30;;;1.10;;
22644;SDS011;11489;50.834;6.752;2023-06-14T13:52:25;1.63;;;1.20;;
22644;SDS011;11489;50.834;6.752;2023-06-14T13:54:51;1.05;;;0.93;;
22644;SDS011;11489;50.834;6.752;2023-06-14T13:57:17;2.08;;;1.15;;
22644;SDS011;11489;50.834;6.752;2023-06-14T13:59:43;1.35;;;1.13;;
22644;SDS011;11489;50.834;6.752;2023-06-14T14:02:10;2.25;;;1.00;;
22644;SDS011;11489;50.834;6.752;2023-06-14T14:04:36;0.95;;;0.88;;
22644;SDS011;11489;50.834;6.752;2023-06-14T14:07:04;1.58;;;1.10;;
22644;SDS011;11489;50.834;6.752;2023-06-14T14:09:31;1.40;;;1.20;;
22644;SDS011;11489;50.834;6.752;2023-06-14T14:11:58;4.93;;;1.40;;
22644;SDS011;11489;50.834;6.752;2023-06-14T14:14:24;4.15;;;1.42;;
22644;SDS011;11489;50.834;6.752;2023-06-14T14:16:50;4.03;;;1.55;;
22644;SDS011;11489;50.834;6.752;2023-06-14T14:19:22;1.42;;;1.20;;
22644;SDS011;11489;50.834;6.752;2023-06-14T14:21:48;3.22;;;1.20;;
22644;SDS011;11489;50.834;6.752;2023-06-14T14:24:14;1.55;;;1.27;;
22644;SDS011;11489;50.834;6.752;2023-06-14T14:26:41;2.55;;;1.20;;
22644;SDS011;11489;50.834;6.752;2023-06-14T14:29:07;2.88;;;1.35;;
22644;SDS011;11489;50.834;6.752;2023-06-14T14:31:33;1.55;;;1.10;;
22644;SDS011;11489;50.834;6.752;2023-06-14T14:33:59;2.67;;;1.35;;
22644;SDS011;11489;50.834;6.752;2023-06-14T14:36:24;1.40;;;1.30;;
22644;SDS011;11489;50.834;6.752;2023-06-14T14:38:50;1.70;;;1.30;;
22644;SDS011;11489;50.834;6.752;2023-06-14T14:41:17;1.85;;;1.40;;
22644;SDS011;11489;50.834;6.752;2023-06-14T14:43:42;2.65;;;1.40;;
22644;SDS011;11489;50.834;6.752;2023-06-14T14:46:10;2.97;;;1.50;;
22644;SDS011;11489;50.834;6.752;2023-06-14T14:48:36;3.47;;;1.58;;
22644;SDS011;11489;50.834;6.752;2023-06-14T14:51:02;4.28;;;2.22;;
22644;SDS011;11489;50.834;6.752;2023-06-14T14:53:28;10.40;;;1.83;;
22644;SDS011;11489;50.834;6.752;2023-06-14T14:55:54;3.33;;;1.77;;
22644;SDS011;11489;50.834;6.752;2023-06-14T14:58:20;2.00;;;1.55;;
22644;SDS011;11489;50.834;6.752;2023-06-14T15:00:46;1.65;;;1.50;;